sensor_id;sensor_type;location;lat;lon;timestamp;pressure;altitude;pressure_sealevel;temperature;humidity
69239;BME280;56349;51.816;-0.026;2023-04-26T00:00:35;101399.41;;;20.68;31.29
69239;BME280;56349;51.816;-0.026;2023-04-26T00:03:01;101401.04;;;20.82;31.39
69239;BME280;56349;51.816;-0.026;2023-04-26T00:05:27;101400.04;;;21.02;31.47
69239;BME280;56349;51.816;-0.026;2023-04-26T00:07:53;101397.66;;;20.69;31.56
69239;BME280;56349;51.816;-0.026;2023-04-26T00:10:19;101394.55;;;20.88;31.64
69239;BME280;56349;51.816;-0.026;2023-04-26T00:12:45;101391.70;;;20.83;31.72
69239;BME280;56349;51.816;-0.026;2023-04-26T00:15:11;101386.03;;;20.77;31.77
69239;BME280;56349;51.816;-0.026;2023-04-26T00:17:37;101382.04;;;20.71;31.85
69239;BME280;56349;51.816;-0.026;2023-04-26T00:20:04;101381.49;;;20.65;31.96
69239;BME280;56349;51.816;-0.026;2023-04-26T00:22:29;101379.52;;;20.62;32.00
69239;BME280;56349;51.816;-0.026;2023-04-26T00:24:55;101377.98;;;20.33;32.02
69239;BME280;56349;51.816;-0.026;2023-04-26T00:27:21;101376.60;;;20.29;32.08
69239;BME280;56349;51.816;-0.026;2023-04-26T00:29:47;101376.40;;;20.53;32.11
69239;BME280;56349;51.816;-0.026;2023-04-26T00:32:13;101372.43;;;20.51;32.15
69239;BME280;56349;51.816;-0.026;2023-04-26T00:34:39;101374.14;;;20.48;32.16
69239;BME280;56349;51.816;-0.026;2023-04-26T00:37:05;101369.79;;;20.43;32.21
69239;BME280;56349;51.816;-0.026;2023-04-26T00:39:30;101364.35;;;20.40;32.25
69239;BME280;56349;51.816;-0.026;2023-04-26T00:41:56;101363.09;;;20.36;32.30
69239;BME280;56349;51.816;-0.026;2023-04-26T00:44:22;101360.44;;;20.31;32.35
69239;BME280;56349;51.816;-0.026;2023-04-26T00:46:48;101360.67;;;20.02;32.39
69239;BME280;56349;51.816;-0.026;2023-04-26T00:49:15;101361.71;;;20.25;32.41
69239;BME280;56349;51.816;-0.026;2023-04-26T00:51:39;101363.86;;;20.23;32.44
69239;BME280;56349;51.816;-0.026;2023-04-26T00:54:06;101365.05;;;20.16;32.52
69239;BME280;56349;51.816;-0.026;2023-04-26T00:56:31;101363.64;;;20.12;32.56
69239;BME280;56349;51.816;-0.026;2023-04-26T00:58:56;101364.29;;;20.06;32.62
69239;BME280;56349;51.816;-0.026;2023-04-26T01:01:22;101363.59;;;20.01;32.70
69239;BME280;56349;51.816;-0.026;2023-04-26T01:03:48;101357.36;;;20.19;32.74
69239;BME280;56349;51.816;-0.026;2023-04-26T01:06:14;101355.41;;;19.95;32.77
69239;BME280;56349;51.816;-0.026;2023-04-26T01:08:39;101350.45;;;20.14;32.81
69239;BME280;56349;51.816;-0.026;2023-04-26T01:11:06;101347.48;;;20.12;32.84
69239;BME280;56349;51.816;-0.026;2023-04-26T01:13:31;101348.75;;;20.10;32.86
69239;BME280;56349;51.816;-0.026;2023-04-26T01:15:58;101349.42;;;20.07;32.89
69239;BME280;56349;51.816;-0.026;2023-04-26T01:18:23;101347.87;;;19.84;32.90
69239;BME280;56349;51.816;-0.026;2023-04-26T01:20:49;101346.51;;;19.83;32.92
69239;BME280;56349;51.816;-0.026;2023-04-26T01:23:15;101344.06;;;20.05;32.93
69239;BME280;56349;51.816;-0.026;2023-04-26T01:25:41;101347.89;;;19.81;32.94
69239;BME280;56349;51.816;-0.026;2023-04-26T01:28:07;101348.65;;;19.79;32.96
69239;BME280;56349;51.816;-0.026;2023-04-26T01:30:33;101342.85;;;20.20;32.99
69239;BME280;56349;51.816;-0.026;2023-04-26T01:32:59;101342.64;;;19.72;33.03
69239;BME280;56349;51.816;-0.026;2023-04-26T01:35:25;101346.98;;;20.12;33.05
69239;BME280;56349;51.816;-0.026;2023-04-26T01:37:52;101343.39;;;19.85;33.12
69239;BME280;56349;51.816;-0.026;2023-04-26T01:40:18;101340.80;;;19.60;33.16
69239;BME280;56349;51.816;-0.026;2023-04-26T01:42:43;101336.83;;;19.80;33.16
69239;BME280;56349;51.816;-0.026;2023-04-26T01:45:09;101335.29;;;19.77;33.21
69239;BME280;56349;51.816;-0.026;2023-04-26T01:47:35;101335.07;;;19.75;33.21
69239;BME280;56349;51.816;-0.026;2023-04-26T01:50:00;101335.54;;;19.53;33.22
69239;BME280;56349;51.816;-0.026;2023-04-26T01:52:25;101334.09;;;19.93;33.25
69239;BME280;56349;51.816;-0.026;2023-04-26T01:54:51;101326.41;;;19.64;33.30
69239;BME280;56349;51.816;-0.026;2023-04-26T01:57:17;101318.76;;;19.59;33.35
69239;BME280;56349;51.816;-0.026;2023-04-26T01:59:43;101321.67;;;19.78;33.38
69239;BME280;56349;51.816;-0.026;2023-04-26T02:02:09;101326.39;;;19.51;33.43
69239;BME280;56349;51.816;-0.026;2023-04-26T02:04:35;101324.90;;;19.70;33.48
69239;BME280;56349;51.816;-0.026;2023-04-26T02:07:01;101321.04;;;19.46;33.51
69239;BME280;56349;51.816;-0.026;2023-04-26T02:09:27;101319.70;;;19.43;33.54
69239;BME280;56349;51.816;-0.026;2023-04-26T02:11:53;101318.59;;;19.41;33.56
69239;BME280;56349;51.816;-0.026;2023-04-26T02:14:19;101317.55;;;19.62;33.57
69239;BME280;56349;51.816;-0.026;2023-04-26T02:16:44;101319.88;;;19.60;33.60
69239;BME280;56349;51.816;-0.026;2023-04-26T02:19:11;101322.89;;;19.37;33.62
69239;BME280;56349;51.816;-0.026;2023-04-26T02:24:02;101330.76;;;19.57;33.62
69239;BME280;56349;51.816;-0.026;2023-04-26T02:26:27;101330.88;;;19.55;33.65
69239;BME280;56349;51.816;-0.026;2023-04-26T02:28:53;101326.36;;;19.30;33.66
69239;BME280;56349;51.816;-0.026;2023-04-26T02:31:19;101317.90;;;19.50;33.68
69239;BME280;56349;51.816;-0.026;2023-04-26T02:33:45;101317.07;;;19.47;33.70
69239;BME280;56349;51.816;-0.026;2023-04-26T02:36:11;101313.75;;;19.45;33.74
69239;BME280;56349;51.816;-0.026;2023-04-26T02:38:37;101312.21;;;19.25;33.70
69239;BME280;56349;51.816;-0.026;2023-04-26T02:41:03;101305.32;;;19.72;33.71
69239;BME280;56349;51.816;-0.026;2023-04-26T02:43:27;101301.84;;;19.40;33.76
69239;BME280;56349;51.816;-0.026;2023-04-26T02:45:52;101303.47;;;19.38;33.79
69239;BME280;56349;51.816;-0.026;2023-04-26T02:48:18;101310.05;;;19.14;33.80
69239;BME280;56349;51.816;-0.026;2023-04-26T02:50:45;101308.75;;;19.35;33.82
69239;BME280;56349;51.816;-0.026;2023-04-26T02:53:10;101302.24;;;19.12;33.82
69239;BME280;56349;51.816;-0.026;2023-04-26T02:55:37;101298.87;;;19.33;33.82
69239;BME280;56349;51.816;-0.026;2023-04-26T02:58:02;101296.90;;;19.30;33.85
69239;BME280;56349;51.816;-0.026;2023-04-26T03:00:28;101299.08;;;19.27;33.88
69239;BME280;56349;51.816;-0.026;2023-04-26T03:02:54;101299.71;;;19.03;33.91
69239;BME280;56349;51.816;-0.026;2023-04-26T03:05:20;101300.44;;;19.22;33.93
69239;BME280;56349;51.816;-0.026;2023-04-26T03:07:46;101302.00;;;19.21;33.94
69239;BME280;56349;51.816;-0.026;2023-04-26T03:10:12;101304.07;;;18.97;33.96
69239;BME280;56349;51.816;-0.026;2023-04-26T03:12:38;101303.33;;;19.26;33.89
69239;BME280;56349;51.816;-0.026;2023-04-26T03:15:05;101297.13;;;19.28;33.85
69239;BME280;56349;51.816;-0.026;2023-04-26T03:17:30;101294.64;;;19.27;33.84
69239;BME280;56349;51.816;-0.026;2023-04-26T03:19:56;101295.20;;;19.27;33.84
69239;BME280;56349;51.816;-0.026;2023-04-26T03:22:22;101295.13;;;19.23;33.86
69239;BME280;56349;51.816;-0.026;2023-04-26T03:24:48;101299.53;;;19.19;33.90
69239;BME280;56349;51.816;-0.026;2023-04-26T03:27:14;101303.25;;;19.14;33.94
69239;BME280;56349;51.816;-0.026;2023-04-26T03:29:40;101306.27;;;19.13;33.96
69239;BME280;56349;51.816;-0.026;2023-04-26T03:32:06;101305.50;;;19.13;34.07
69239;BME280;56349;51.816;-0.026;2023-04-26T03:34:32;101301.99;;;19.44;34.18
69239;BME280;56349;51.816;-0.026;2023-04-26T03:36:58;101298.88;;;19.29;34.23
69239;BME280;56349;51.816;-0.026;2023-04-26T03:39:24;101298.70;;;19.46;34.18
69239;BME280;56349;51.816;-0.026;2023-04-26T03:41:50;101294.96;;;19.64;34.07
69239;BME280;56349;51.816;-0.026;2023-04-26T03:44:15;101285.66;;;19.64;33.90
69239;BME280;56349;51.816;-0.026;2023-04-26T03:46:42;101278.69;;;19.69;33.66
69239;BME280;56349;51.816;-0.026;2023-04-26T03:49:07;101275.41;;;19.99;33.33
69239;BME280;56349;51.816;-0.026;2023-04-26T03:51:32;101273.70;;;20.22;33.03
69239;BME280;56349;51.816;-0.026;2023-04-26T03:53:58;101271.98;;;20.38;32.74
69239;BME280;56349;51.816;-0.026;2023-04-26T03:56:23;101269.63;;;20.24;32.49
69239;BME280;56349;51.816;-0.026;2023-04-26T03:58:49;101273.98;;;20.29;32.32
69239;BME280;56349;51.816;-0.026;2023-04-26T04:01:15;101276.20;;;20.27;32.22
69239;BME280;56349;51.816;-0.026;2023-04-26T04:03:41;101276.37;;;20.51;32.15
69239;BME280;56349;51.816;-0.026;2023-04-26T04:06:07;101276.29;;;20.46;32.11
69239;BME280;56349;51.816;-0.026;2023-04-26T04:08:33;101276.41;;;20.38;32.10
69239;BME280;56349;51.816;-0.026;2023-04-26T04:10:59;101273.08;;;20.32;32.09
69239;BME280;56349;51.816;-0.026;2023-04-26T04:13:24;101274.36;;;20.23;32.11
69239;BME280;56349;51.816;-0.026;2023-04-26T04:15:50;101270.66;;;20.13;32.13
69239;BME280;56349;51.816;-0.026;2023-04-26T04:18:16;101272.10;;;20.03;32.17
69239;BME280;56349;51.816;-0.026;2023-04-26T04:20:42;101267.72;;;19.96;32.21
69239;BME280;56349;51.816;-0.026;2023-04-26T04:23:08;101270.11;;;19.89;32.24
69239;BME280;56349;51.816;-0.026;2023-04-26T04:25:34;101273.41;;;19.82;32.28
69239;BME280;56349;51.816;-0.026;2023-04-26T04:28:01;101271.57;;;19.76;32.30
69239;BME280;56349;51.816;-0.026;2023-04-26T04:30:26;101266.42;;;20.14;32.34
69239;BME280;56349;51.816;-0.026;2023-04-26T04:32:52;101263.80;;;19.83;32.40
69239;BME280;56349;51.816;-0.026;2023-04-26T04:35:18;101265.65;;;19.74;32.47
69239;BME280;56349;51.816;-0.026;2023-04-26T04:37:44;101265.96;;;19.65;32.55
69239;BME280;56349;51.816;-0.026;2023-04-26T04:40:10;101268.86;;;19.58;32.61
69239;BME280;56349;51.816;-0.026;2023-04-26T04:42:35;101269.47;;;19.31;32.64
69239;BME280;56349;51.816;-0.026;2023-04-26T04:45:02;101271.77;;;19.51;32.65
69239;BME280;56349;51.816;-0.026;2023-04-26T04:47:27;101271.66;;;19.67;32.71
69239;BME280;56349;51.816;-0.026;2023-04-26T04:49:52;101270.42;;;19.59;32.79
69239;BME280;56349;51.816;-0.026;2023-04-26T04:52:18;101268.46;;;19.29;32.87
69239;BME280;56349;51.816;-0.026;2023-04-26T04:54:44;101269.64;;;19.43;33.00
69239;BME280;56349;51.816;-0.026;2023-04-26T04:57:10;101267.94;;;19.39;33.13
69239;BME280;56349;51.816;-0.026;2023-04-26T04:59:37;101270.17;;;19.34;33.29
69239;BME280;56349;51.816;-0.026;2023-04-26T05:02:02;101274.13;;;19.32;33.47
69239;BME280;56349;51.816;-0.026;2023-04-26T05:04:28;101280.85;;;19.09;33.66
69239;BME280;56349;51.816;-0.026;2023-04-26T05:06:54;101284.52;;;19.30;33.89
69239;BME280;56349;51.816;-0.026;2023-04-26T05:09:20;101285.18;;;19.28;34.09
69239;BME280;56349;51.816;-0.026;2023-04-26T05:11:46;101287.29;;;19.30;34.27
69239;BME280;56349;51.816;-0.026;2023-04-26T05:14:12;101282.93;;;19.35;34.41
69239;BME280;56349;51.816;-0.026;2023-04-26T05:16:38;101278.14;;;19.40;34.55
69239;BME280;56349;51.816;-0.026;2023-04-26T05:19:04;101272.70;;;19.44;34.69
69239;BME280;56349;51.816;-0.026;2023-04-26T05:21:30;101263.01;;;19.49;34.82
69239;BME280;56349;51.816;-0.026;2023-04-26T05:23:56;101261.12;;;19.52;34.96
69239;BME280;56349;51.816;-0.026;2023-04-26T05:26:23;101259.13;;;19.57;35.07
69239;BME280;56349;51.816;-0.026;2023-04-26T05:28:47;101259.33;;;19.41;35.15
69239;BME280;56349;51.816;-0.026;2023-04-26T05:31:13;101261.66;;;19.69;35.23
69239;BME280;56349;51.816;-0.026;2023-04-26T05:33:39;101265.12;;;19.74;35.31
69239;BME280;56349;51.816;-0.026;2023-04-26T05:36:06;101268.24;;;19.39;35.34
69239;BME280;56349;51.816;-0.026;2023-04-26T05:38:30;101270.48;;;19.73;35.36
69239;BME280;56349;51.816;-0.026;2023-04-26T05:40:56;101274.06;;;19.80;35.36
69239;BME280;56349;51.816;-0.026;2023-04-26T05:43:23;101272.96;;;19.83;35.42
69239;BME280;56349;51.816;-0.026;2023-04-26T05:45:51;101274.36;;;19.87;35.49
69239;BME280;56349;51.816;-0.026;2023-04-26T05:48:13;101274.62;;;20.13;35.52
69239;BME280;56349;51.816;-0.026;2023-04-26T05:50:39;101271.55;;;19.97;35.50
69239;BME280;56349;51.816;-0.026;2023-04-26T05:53:05;101268.89;;;19.81;35.48
69239;BME280;56349;51.816;-0.026;2023-04-26T05:55:31;101267.76;;;20.32;35.47
69239;BME280;56349;51.816;-0.026;2023-04-26T05:57:57;101271.37;;;20.16;35.46
69239;BME280;56349;51.816;-0.026;2023-04-26T06:00:23;101276.17;;;20.23;35.41
69239;BME280;56349;51.816;-0.026;2023-04-26T06:02:48;101277.16;;;20.27;35.40
69239;BME280;56349;51.816;-0.026;2023-04-26T06:05:14;101282.56;;;20.47;35.45
69239;BME280;56349;51.816;-0.026;2023-04-26T06:07:39;101286.60;;;20.02;35.52
69239;BME280;56349;51.816;-0.026;2023-04-26T06:10:06;101288.26;;;20.29;35.53
69239;BME280;56349;51.816;-0.026;2023-04-26T06:12:31;101289.25;;;20.53;35.52
69239;BME280;56349;51.816;-0.026;2023-04-26T06:14:56;101293.37;;;20.54;35.55
69239;BME280;56349;51.816;-0.026;2023-04-26T06:17:22;101292.75;;;20.11;35.55
69239;BME280;56349;51.816;-0.026;2023-04-26T06:19:48;101295.20;;;20.58;35.52
69239;BME280;56349;51.816;-0.026;2023-04-26T06:22:19;101299.61;;;20.16;35.47
69239;BME280;56349;51.816;-0.026;2023-04-26T06:24:40;101303.32;;;20.41;35.43
69239;BME280;56349;51.816;-0.026;2023-04-26T06:27:07;101306.20;;;20.21;35.32
69239;BME280;56349;51.816;-0.026;2023-04-26T06:29:37;101303.69;;;20.65;35.08
69239;BME280;56349;51.816;-0.026;2023-04-26T06:31:57;101298.33;;;20.22;35.03
69239;BME280;56349;51.816;-0.026;2023-04-26T06:34:22;101295.30;;;20.26;35.14
69239;BME280;56349;51.816;-0.026;2023-04-26T06:36:49;101297.13;;;20.37;35.37
69239;BME280;56349;51.816;-0.026;2023-04-26T06:39:13;101297.39;;;20.55;35.31
69239;BME280;56349;51.816;-0.026;2023-04-26T06:41:40;101297.41;;;20.79;35.19
69239;BME280;56349;51.816;-0.026;2023-04-26T06:44:05;101298.34;;;20.82;35.01
69239;BME280;56349;51.816;-0.026;2023-04-26T06:46:31;101294.58;;;21.14;34.79
69239;BME280;56349;51.816;-0.026;2023-04-26T06:48:57;101291.91;;;21.49;34.54
69239;BME280;56349;51.816;-0.026;2023-04-26T06:51:23;101290.77;;;21.84;34.25
69239;BME280;56349;51.816;-0.026;2023-04-26T06:53:49;101286.00;;;21.97;33.91
69239;BME280;56349;51.816;-0.026;2023-04-26T06:56:15;101284.59;;;22.32;33.53
69239;BME280;56349;51.816;-0.026;2023-04-26T07:01:07;101281.78;;;22.49;32.80
69239;BME280;56349;51.816;-0.026;2023-04-26T07:03:32;101283.14;;;22.81;32.43
69239;BME280;56349;51.816;-0.026;2023-04-26T07:05:58;101286.37;;;23.13;32.06
69239;BME280;56349;51.816;-0.026;2023-04-26T07:08:24;101287.35;;;23.21;31.71
69239;BME280;56349;51.816;-0.026;2023-04-26T07:10:50;101291.50;;;23.50;31.38
69239;BME280;56349;51.816;-0.026;2023-04-26T07:13:17;101289.67;;;23.48;31.06
69239;BME280;56349;51.816;-0.026;2023-04-26T07:15:43;101287.89;;;23.71;30.79
69239;BME280;56349;51.816;-0.026;2023-04-26T07:18:08;101286.11;;;23.70;30.55
69239;BME280;56349;51.816;-0.026;2023-04-26T07:20:34;101285.07;;;24.17;30.25
69239;BME280;56349;51.816;-0.026;2023-04-26T07:23:00;101283.69;;;24.35;29.94
69239;BME280;56349;51.816;-0.026;2023-04-26T07:25:26;101281.61;;;24.08;29.75
69239;BME280;56349;51.816;-0.026;2023-04-26T07:27:51;101278.91;;;24.25;29.51
69239;BME280;56349;51.816;-0.026;2023-04-26T07:30:17;101280.20;;;24.38;29.31
69239;BME280;56349;51.816;-0.026;2023-04-26T07:32:44;101279.03;;;24.51;29.09
69239;BME280;56349;51.816;-0.026;2023-04-26T07:35:09;101278.81;;;24.64;28.88
69239;BME280;56349;51.816;-0.026;2023-04-26T07:37:34;101279.08;;;24.78;28.67
69239;BME280;56349;51.816;-0.026;2023-04-26T07:40:00;101280.23;;;24.90;28.48
69239;BME280;56349;51.816;-0.026;2023-04-26T07:42:26;101280.65;;;24.74;28.29
69239;BME280;56349;51.816;-0.026;2023-04-26T07:44:52;101284.80;;;25.12;28.10
69239;BME280;56349;51.816;-0.026;2023-04-26T07:47:18;101290.82;;;25.26;27.96
69239;BME280;56349;51.816;-0.026;2023-04-26T07:49:44;101294.84;;;24.87;27.79
69239;BME280;56349;51.816;-0.026;2023-04-26T07:52:10;101293.13;;;25.44;27.68
69239;BME280;56349;51.816;-0.026;2023-04-26T07:54:36;101291.03;;;25.52;27.59
69239;BME280;56349;51.816;-0.026;2023-04-26T07:57:01;101291.76;;;25.30;27.56
69239;BME280;56349;51.816;-0.026;2023-04-26T07:59:27;101292.82;;;25.13;27.74
69239;BME280;56349;51.816;-0.026;2023-04-26T08:01:53;101293.49;;;25.42;27.69
69239;BME280;56349;51.816;-0.026;2023-04-26T08:06:45;101289.37;;;25.58;27.76
69239;BME280;56349;51.816;-0.026;2023-04-26T08:09:11;101285.20;;;25.45;27.72
69239;BME280;56349;51.816;-0.026;2023-04-26T08:11:37;101287.15;;;25.55;27.71
69239;BME280;56349;51.816;-0.026;2023-04-26T08:14:02;101287.70;;;25.62;27.67
69239;BME280;56349;51.816;-0.026;2023-04-26T08:16:28;101292.05;;;25.69;27.61
69239;BME280;56349;51.816;-0.026;2023-04-26T08:18:53;101290.93;;;25.53;27.55
69239;BME280;56349;51.816;-0.026;2023-04-26T08:21:20;101285.09;;;25.82;27.52
69239;BME280;56349;51.816;-0.026;2023-04-26T08:23:45;101282.73;;;25.67;27.44
69239;BME280;56349;51.816;-0.026;2023-04-26T08:26:11;101277.30;;;25.95;27.24
69239;BME280;56349;51.816;-0.026;2023-04-26T08:28:37;101276.83;;;25.77;27.08
69239;BME280;56349;51.816;-0.026;2023-04-26T08:31:03;101275.57;;;25.55;27.03
69239;BME280;56349;51.816;-0.026;2023-04-26T08:33:29;101275.03;;;25.60;26.98
69239;BME280;56349;51.816;-0.026;2023-04-26T08:35:55;101277.30;;;25.90;26.92
69239;BME280;56349;51.816;-0.026;2023-04-26T08:38:20;101276.22;;;25.94;26.84
69239;BME280;56349;51.816;-0.026;2023-04-26T08:40:47;101273.97;;;26.20;26.77
69239;BME280;56349;51.816;-0.026;2023-04-26T08:43:14;101270.82;;;26.25;26.66
69239;BME280;56349;51.816;-0.026;2023-04-26T08:45:40;101270.49;;;25.77;26.57
69239;BME280;56349;51.816;-0.026;2023-04-26T08:48:05;101273.97;;;25.78;26.51
69239;BME280;56349;51.816;-0.026;2023-04-26T08:50:30;101273.00;;;25.80;26.35
69239;BME280;56349;51.816;-0.026;2023-04-26T08:52:55;101272.44;;;25.82;26.15
69239;BME280;56349;51.816;-0.026;2023-04-26T08:55:21;101272.51;;;25.81;26.09
69239;BME280;56349;51.816;-0.026;2023-04-26T08:57:48;101269.89;;;25.77;26.06
69239;BME280;56349;51.816;-0.026;2023-04-26T09:00:14;101267.79;;;25.73;26.05
69239;BME280;56349;51.816;-0.026;2023-04-26T09:02:39;101264.23;;;25.67;26.03
69239;BME280;56349;51.816;-0.026;2023-04-26T09:05:06;101268.45;;;25.91;26.01
69239;BME280;56349;51.816;-0.026;2023-04-26T09:07:31;101270.91;;;25.62;25.97
69239;BME280;56349;51.816;-0.026;2023-04-26T09:09:57;101269.47;;;25.58;25.96
69239;BME280;56349;51.816;-0.026;2023-04-26T09:12:21;101271.69;;;25.54;25.94
69239;BME280;56349;51.816;-0.026;2023-04-26T09:14:47;101277.75;;;25.98;25.94
69239;BME280;56349;51.816;-0.026;2023-04-26T09:19:39;101277.85;;;25.44;25.89
69239;BME280;56349;51.816;-0.026;2023-04-26T09:22:03;101275.74;;;25.72;25.84
69239;BME280;56349;51.816;-0.026;2023-04-26T09:27:00;101279.97;;;25.71;25.79
69239;BME280;56349;51.816;-0.026;2023-04-26T09:29:20;101279.66;;;25.42;25.78
69239;BME280;56349;51.816;-0.026;2023-04-26T09:31:47;101279.64;;;25.87;25.77
69239;BME280;56349;51.816;-0.026;2023-04-26T09:34:12;101280.94;;;25.60;25.76
69239;BME280;56349;51.816;-0.026;2023-04-26T09:39:02;101285.41;;;25.56;25.80
69239;BME280;56349;51.816;-0.026;2023-04-26T09:43:53;101285.94;;;25.05;26.03
69239;BME280;56349;51.816;-0.026;2023-04-26T09:46:21;101293.56;;;24.99;26.17
69239;BME280;56349;51.816;-0.026;2023-04-26T09:48:45;101292.74;;;24.70;26.34
69239;BME280;56349;51.816;-0.026;2023-04-26T09:51:10;101290.60;;;24.68;26.52
69239;BME280;56349;51.816;-0.026;2023-04-26T09:53:39;101287.49;;;24.10;26.71
69239;BME280;56349;51.816;-0.026;2023-04-26T09:56:07;101291.77;;;24.03;26.95
69239;BME280;56349;51.816;-0.026;2023-04-26T09:58:27;101288.34;;;23.69;27.20
69239;BME280;56349;51.816;-0.026;2023-04-26T10:00:54;101295.55;;;23.84;27.42
69239;BME280;56349;51.816;-0.026;2023-04-26T10:03:22;101291.50;;;23.32;27.65
69239;BME280;56349;51.816;-0.026;2023-04-26T10:05:45;101287.74;;;23.54;27.88
69239;BME280;56349;51.816;-0.026;2023-04-26T10:08:09;101284.52;;;23.02;28.07
69239;BME280;56349;51.816;-0.026;2023-04-26T10:10:36;101284.52;;;23.00;28.34
69239;BME280;56349;51.816;-0.026;2023-04-26T10:13:01;101285.65;;;22.96;28.56
69239;BME280;56349;51.816;-0.026;2023-04-26T10:15:26;101276.17;;;22.71;28.76
69239;BME280;56349;51.816;-0.026;2023-04-26T10:17:52;101274.57;;;22.50;28.97
69239;BME280;56349;51.816;-0.026;2023-04-26T10:20:19;101270.26;;;22.59;29.14
69239;BME280;56349;51.816;-0.026;2023-04-26T10:22:48;101267.72;;;22.37;29.36
69239;BME280;56349;51.816;-0.026;2023-04-26T10:25:09;101265.20;;;22.42;29.55
69239;BME280;56349;51.816;-0.026;2023-04-26T10:30:06;101262.19;;;22.11;29.86
69239;BME280;56349;51.816;-0.026;2023-04-26T10:32:26;101263.37;;;21.97;30.02
69239;BME280;56349;51.816;-0.026;2023-04-26T10:37:18;101257.84;;;21.64;30.36
69239;BME280;56349;51.816;-0.026;2023-04-26T10:39:45;101257.21;;;21.52;30.45
69239;BME280;56349;51.816;-0.026;2023-04-26T10:44:40;101258.43;;;21.46;30.71
69239;BME280;56349;51.816;-0.026;2023-04-26T10:47:00;101255.32;;;21.16;30.81
69239;BME280;56349;51.816;-0.026;2023-04-26T10:49:26;101254.94;;;21.17;30.78
69239;BME280;56349;51.816;-0.026;2023-04-26T10:54:17;101253.19;;;21.15;31.09
69239;BME280;56349;51.816;-0.026;2023-04-26T10:56:51;101248.69;;;21.17;31.39
69239;BME280;56349;51.816;-0.026;2023-04-26T10:59:09;101246.00;;;21.43;31.54
69239;BME280;56349;51.816;-0.026;2023-04-26T11:01:34;101245.08;;;21.40;31.71
69239;BME280;56349;51.816;-0.026;2023-04-26T11:04:04;101247.77;;;21.15;31.90
69239;BME280;56349;51.816;-0.026;2023-04-26T11:06:29;101249.07;;;21.37;32.03
69239;BME280;56349;51.816;-0.026;2023-04-26T11:08:52;101251.14;;;21.15;32.09
69239;BME280;56349;51.816;-0.026;2023-04-26T11:11:17;101247.81;;;21.14;32.20
69239;BME280;56349;51.816;-0.026;2023-04-26T11:13:43;101243.26;;;21.63;32.29
69239;BME280;56349;51.816;-0.026;2023-04-26T11:16:09;101241.63;;;21.12;32.39
69239;BME280;56349;51.816;-0.026;2023-04-26T11:18:35;101240.82;;;21.09;32.45
69239;BME280;56349;51.816;-0.026;2023-04-26T11:20:59;101239.39;;;21.06;32.51
69239;BME280;56349;51.816;-0.026;2023-04-26T11:23:25;101239.11;;;21.56;32.57
69239;BME280;56349;51.816;-0.026;2023-04-26T11:25:50;101235.48;;;21.38;32.63
69239;BME280;56349;51.816;-0.026;2023-04-26T11:28:25;101228.93;;;21.52;32.62
69239;BME280;56349;51.816;-0.026;2023-04-26T11:30:42;101226.54;;;21.51;32.58
69239;BME280;56349;51.816;-0.026;2023-04-26T11:35:34;101230.69;;;21.79;32.33
69239;BME280;56349;51.816;-0.026;2023-04-26T11:37:59;101229.47;;;21.84;32.16
69239;BME280;56349;51.816;-0.026;2023-04-26T11:40:27;101230.55;;;22.19;31.94
69239;BME280;56349;51.816;-0.026;2023-04-26T11:42:51;101231.36;;;22.53;31.72
69239;BME280;56349;51.816;-0.026;2023-04-26T11:45:17;101227.66;;;22.85;31.48
69239;BME280;56349;51.816;-0.026;2023-04-26T11:47:43;101227.22;;;22.94;31.22
69239;BME280;56349;51.816;-0.026;2023-04-26T11:50:09;101228.47;;;23.24;30.96
69239;BME280;56349;51.816;-0.026;2023-04-26T11:52:34;101222.18;;;23.27;30.70
69239;BME280;56349;51.816;-0.026;2023-04-26T11:55:01;101220.70;;;23.55;30.45
69239;BME280;56349;51.816;-0.026;2023-04-26T11:57:29;101223.39;;;23.86;30.16
69239;BME280;56349;51.816;-0.026;2023-04-26T11:59:52;101220.85;;;23.69;29.86
69239;BME280;56349;51.816;-0.026;2023-04-26T12:02:17;101218.42;;;23.94;29.59
69239;BME280;56349;51.816;-0.026;2023-04-26T12:04:43;101222.47;;;23.94;29.29
69239;BME280;56349;51.816;-0.026;2023-04-26T12:07:09;101228.60;;;24.15;28.98
69239;BME280;56349;51.816;-0.026;2023-04-26T12:09:40;101225.53;;;24.35;28.80
69239;BME280;56349;51.816;-0.026;2023-04-26T12:12:03;101221.30;;;24.54;28.62
69239;BME280;56349;51.816;-0.026;2023-04-26T12:14:31;101224.95;;;24.68;28.46
69239;BME280;56349;51.816;-0.026;2023-04-26T12:16:52;101223.40;;;24.83;28.29
69239;BME280;56349;51.816;-0.026;2023-04-26T12:19:23;101220.65;;;24.98;28.13
69239;BME280;56349;51.816;-0.026;2023-04-26T12:21:46;101221.56;;;25.14;27.95
69239;BME280;56349;51.816;-0.026;2023-04-26T12:26:41;101224.48;;;25.23;27.60
69239;BME280;56349;51.816;-0.026;2023-04-26T12:29:01;101221.46;;;25.34;27.46
69239;BME280;56349;51.816;-0.026;2023-04-26T12:31:27;101221.61;;;25.45;27.35
69239;BME280;56349;51.816;-0.026;2023-04-26T12:33:52;101223.46;;;25.33;27.22
69239;BME280;56349;51.816;-0.026;2023-04-26T12:36:18;101223.75;;;25.66;27.10
69239;BME280;56349;51.816;-0.026;2023-04-26T12:38:44;101218.51;;;25.75;26.99
69239;BME280;56349;51.816;-0.026;2023-04-26T12:41:10;101216.33;;;25.62;26.89
69239;BME280;56349;51.816;-0.026;2023-04-26T12:43:36;101217.13;;;25.68;26.80
69239;BME280;56349;51.816;-0.026;2023-04-26T12:46:02;101213.12;;;25.50;26.70
69239;BME280;56349;51.816;-0.026;2023-04-26T12:48:27;101216.26;;;26.08;26.59
69239;BME280;56349;51.816;-0.026;2023-04-26T12:50:53;101215.70;;;26.18;26.47
69239;BME280;56349;51.816;-0.026;2023-04-26T12:53:19;101218.76;;;25.76;26.38
69239;BME280;56349;51.816;-0.026;2023-04-26T12:55:45;101216.59;;;26.08;26.31
69239;BME280;56349;51.816;-0.026;2023-04-26T12:58:11;101212.14;;;25.90;26.22
69239;BME280;56349;51.816;-0.026;2023-04-26T13:00:37;101216.26;;;25.96;26.13
69239;BME280;56349;51.816;-0.026;2023-04-26T13:03:03;101220.79;;;26.03;26.06